Time,TemperatureF,DewpointF,PressureIn,WindDirection,WindDirectionDegrees,WindSpeedMPH,WindSpeedGustMPH,Humidity,HourlyPrecipIn,Conditions,Clouds,dailyrainin,SoftwareType,DateUTC
2013-12-02 00:00:00,35.6,18.3,30.00,NNE,22,2.6,3.5,49,0.00,CLR,,0.00,WeatherDisplay:10.37,2013-12-02 05:00:00,
2013-12-02 00:01:00,35.6,18.3,30.00,NNE,22,2.6,2.6,49,0.00,CLR,,0.00,WeatherDisplay:10.37,2013-12-02 05:01:00,
2013-12-02 00:03:00,35.6,18.3,30.00,NNE,22,0.9,3.5,49,0.00,CLR,,0.00,WeatherDisplay:10.37,2013-12-02 05:03:00,
2013-12-02 00:08:00,35.6,18.3,29.97,NE,45,2.4,4.0,49,0.00,CLR,,0.00,WeatherDisplay:10.37,2013-12-02 05:08:00,
2013-12-02 00:13:00,35.6,18.3,29.97,NNE,22,2.6,3.5,49,0.00,CLR,,0.00,WeatherDisplay:10.37,2013-12-02 05:13:00,
2013-12-02 00:18:00,35.6,18.8,29.97,NNE,22,2.9,3.8,50,0.00,CLR,,0.00,WeatherDisplay:10.37,2013-12-02 05:18:00,
2013-12-02 00:23:00,35.4,18.6,29.97,NNW,338,3.6,4.6,50,0.00,CLR,,0.00,WeatherDisplay:10.37,2013-12-02 05:23:00,
2013-12-02 00:28:00,35.4,18.6,29.97,NNE,22,3.6,5.8,50,0.00,CLR,,0.00,WeatherDisplay:10.37,2013-12-02 05:28:00,
2013-12-02 00:33:00,35.2,18.4,29.97,North,0,3.6,4.9,50,0.00,CLR,,0.00,WeatherDisplay:10.37,2013-12-02 05:33:00,
2013-12-02 00:38:00,35.1,18.3,29.97,NNE,22,4.0,4.6,50,0.00,CLR,,0.00,WeatherDisplay:10.37,2013-12-02 05:38:00,
2013-12-02 00:43:00,35.1,18.3,29.97,NNE,22,2.6,3.5,50,0.00,CLR,,0.00,WeatherDisplay:10.37,2013-12-02 05:43:00,
2013-12-02 00:48:00,35.1,18.3,29.97,NNW,338,2.4,3.5,50,0.00,CLR,,0.00,WeatherDisplay:10.37,2013-12-02 05:48:00,
2013-12-02 00:53:00,35.1,18.3,29.97,NNE,22,2.9,2.9,50,0.00,CLR,,0.00,WeatherDisplay:10.37,2013-12-02 05:53:00,
2013-12-02 00:58:00,34.9,18.1,29.97,NNE,22,1.6,3.5,50,0.00,CLR,,0.00,WeatherDisplay:10.37,2013-12-02 05:58:00,
2013-12-02 01:03:00,35.1,18.3,29.97,NNE,22,2.2,3.5,50,0.00,CLR,,0.00,WeatherDisplay:10.37,2013-12-02 06:03:00,
2013-12-02 01:08:00,35.1,18.3,29.97,NNE,22,2.2,3.5,50,0.00,CLR,,0.00,WeatherDisplay:10.37,2013-12-02 06:08:00,
2013-12-02 01:13:00,35.1,18.7,29.97,NNE,22,0.0,2.3,51,0.00,CLR,,0.00,WeatherDisplay:10.37,2013-12-02 06:13:00,
2013-12-02 01:18:00,35.1,18.7,29.97,NNE,22,2.6,3.8,51,0.00,CLR,,0.00,WeatherDisplay:10.37,2013-12-02 06:18:00,
2013-12-02 01:23:00,35.1,18.7,29.97,NNE,22,3.6,5.4,51,0.00,CLR,,0.00,WeatherDisplay:10.37,2013-12-02 06:23:00,
2013-12-02 01:28:00,35.1,18.7,29.97,NNE,22,1.4,2.3,51,0.00,CLR,,0.00,WeatherDisplay:10.37,2013-12-02 06:28:00,
2013-12-02 01:33:00,35.1,18.7,29.97,NNE,22,1.4,3.5,51,0.00,CLR,,0.00,WeatherDisplay:10.37,2013-12-02 06:33:00,
2013-12-02 01:38:00,35.1,18.7,29.94,NNE,22,2.6,4.6,51,0.00,CLR,,0.00,WeatherDisplay:10.37,2013-12-02 06:38:00,
2013-12-02 01:43:00,34.9,18.6,29.94,NNE,22,2.4,4.6,51,0.00,CLR,,0.00,WeatherDisplay:10.37,2013-12-02 06:43:00,
2013-12-02 01:48:00,35.1,18.7,29.94,NNE,22,0.9,1.4,51,0.00,CLR,,0.00,WeatherDisplay:10.37,2013-12-02 06:48:00,
2013-12-02 01:53:00,35.1,19.2,29.94,NNE,22,0.9,1.2,52,0.00,CLR,,0.00,WeatherDisplay:10.37,2013-12-02 06:53:00,
2013-12-02 01:58:00,35.1,19.2,29.94,North,0,0.0,0.0,52,0.00,CLR,,0.00,WeatherDisplay:10.37,2013-12-02 06:58:00,
2013-12-02 02:03:00,35.1,19.2,29.94,NNE,22,0.0,0.0,52,0.00,CLR,,0.00,WeatherDisplay:10.37,2013-12-02 07:03:00,
2013-12-02 02:08:00,35.1,19.2,29.94,NNE,22,0.0,2.3,52,0.00,CLR,,0.00,WeatherDisplay:10.37,2013-12-02 07:08:00,
2013-12-02 02:13:00,35.1,19.2,29.94,NNE,22,1.6,2.6,52,0.00,CLR,,0.00,WeatherDisplay:10.37,2013-12-02 07:13:00,
2013-12-02 02:18:00,35.1,18.7,29.94,NNE,22,2.0,3.5,51,0.00,CLR,,0.00,WeatherDisplay:10.37,2013-12-02 07:18:00,
2013-12-02 02:23:00,35.1,19.2,29.91,NNE,22,2.6,4.6,52,0.00,CLR,,0.00,WeatherDisplay:10.37,2013-12-02 07:23:00,
2013-12-02 02:28:00,35.1,18.7,29.91,North,0,0.9,2.3,51,0.00,CLR,,0.00,WeatherDisplay:10.37,2013-12-02 07:28:00,
2013-12-02 02:33:00,34.9,18.6,29.91,NNE,22,0.0,0.0,51,0.00,CLR,,0.00,WeatherDisplay:10.37,2013-12-02 07:33:00,
2013-12-02 02:38:00,34.9,18.6,29.91,North,0,1.2,2.3,51,0.00,CLR,,0.00,WeatherDisplay:10.37,2013-12-02 07:38:00,
2013-12-02 02:43:00,34.9,18.6,29.91,NNE,22,1.2,2.0,51,0.00,CLR,,0.00,WeatherDisplay:10.37,2013-12-02 07:43:00,
2013-12-02 02:48:00,34.9,18.6,29.91,NNE,22,2.2,2.9,51,0.00,CLR,,0.00,WeatherDisplay:10.37,2013-12-02 07:48:00,
2013-12-02 02:53:00,34.9,18.6,29.91,NNE,22,1.6,2.3,51,0.00,CLR,,0.00,WeatherDisplay:10.37,2013-12-02 07:53:00,
2013-12-02 02:58:00,34.9,18.6,29.91,NNE,22,2.0,3.5,51,0.00,CLR,,0.00,WeatherDisplay:10.37,2013-12-02 07:58:00,
2013-12-02 03:03:00,34.9,18.6,29.91,NNE,22,2.2,3.8,51,0.00,CLR,,0.00,WeatherDisplay:10.37,2013-12-02 08:03:00,
2013-12-02 03:08:00,34.7,18.4,29.91,NNE,22,2.9,3.5,51,0.00,CLR,,0.00,WeatherDisplay:10.37,2013-12-02 08:08:00,
2013-12-02 03:13:00,34.5,18.2,29.91,NNE,22,3.3,4.6,51,0.00,CLR,,0.00,WeatherDisplay:10.37,2013-12-02 08:13:00,
2013-12-02 03:18:00,34.5,18.2,29.91,NNE,22,2.6,3.5,51,0.00,CLR,,0.00,WeatherDisplay:10.37,2013-12-02 08:18:00,
2013-12-02 03:23:00,34.5,18.2,29.91,NNW,338,1.6,2.3,51,0.00,CLR,,0.00,WeatherDisplay:10.37,2013-12-02 08:23:00,
2013-12-02 03:28:00,34.5,18.2,29.91,NNE,22,2.0,4.6,51,0.00,CLR,,0.00,WeatherDisplay:10.37,2013-12-02 08:28:00,
2013-12-02 03:33:00,34.3,18.1,29.91,North,0,2.0,2.3,51,0.00,CLR,,0.00,WeatherDisplay:10.37,2013-12-02 08:33:00,
2013-12-02 03:38:00,34.3,18.1,29.94,North,0,2.4,2.9,51,0.00,CLR,,0.00,WeatherDisplay:10.37,2013-12-02 08:38:00,
2013-12-02 03:43:00,34.3,18.1,29.94,NNW,338,2.6,3.5,51,0.00,CLR,,0.00,WeatherDisplay:10.37,2013-12-02 08:43:00,
2013-12-02 03:49:00,34.3,18.1,29.94,NNE,22,0.0,2.3,51,0.00,CLR,,0.00,WeatherDisplay:10.37,2013-12-02 08:49:00,
2013-12-02 03:54:00,34.3,18.1,29.94,NNE,22,1.2,2.4,51,0.00,CLR,,0.00,WeatherDisplay:10.37,2013-12-02 08:54:00,
2013-12-02 03:59:00,34.3,18.1,29.94,NNE,22,1.2,3.5,51,0.00,CLR,,0.00,WeatherDisplay:10.37,2013-12-02 08:59:00,
2013-12-02 04:04:00,34.3,18.1,29.94,NNE,22,2.6,3.5,51,0.00,CLR,,0.00,WeatherDisplay:10.37,2013-12-02 09:04:00,
2013-12-02 04:09:00,34.2,17.9,29.94,ENE,68,2.0,4.6,51,0.00,CLR,,0.00,WeatherDisplay:10.37,2013-12-02 09:09:00,
2013-12-02 04:14:00,34.2,17.9,29.94,NNE,22,2.4,2.6,51,0.00,CLR,,0.00,WeatherDisplay:10.37,2013-12-02 09:14:00,
2013-12-02 04:19:00,34.0,17.3,29.94,North,0,2.4,3.5,50,0.00,CLR,,0.00,WeatherDisplay:10.37,2013-12-02 09:19:00,
2013-12-02 04:24:00,34.0,17.3,29.94,NNW,338,2.2,3.5,50,0.00,CLR,,0.00,WeatherDisplay:10.37,2013-12-02 09:24:00,
2013-12-02 04:29:00,34.0,17.3,29.94,NNW,338,0.0,0.0,50,0.00,CLR,,0.00,WeatherDisplay:10.37,2013-12-02 09:29:00,
2013-12-02 04:34:00,34.0,17.7,29.94,North,0,1.6,2.3,51,0.00,CLR,,0.00,WeatherDisplay:10.37,2013-12-02 09:34:00,
2013-12-02 04:39:00,34.0,17.7,29.94,NNW,338,0.0,0.0,51,0.00,CLR,,0.00,WeatherDisplay:10.37,2013-12-02 09:39:00,
2013-12-02 04:44:00,34.0,17.3,29.94,NNW,338,1.2,2.3,50,0.00,CLR,,0.00,WeatherDisplay:10.37,2013-12-02 09:44:00,
2013-12-02 04:49:00,34.0,17.3,29.94,NNW,338,1.4,2.3,50,0.00,CLR,,0.00,WeatherDisplay:10.37,2013-12-02 09:49:00,
2013-12-02 04:54:00,33.8,17.1,29.97,NNW,338,2.2,2.6,50,0.00,CLR,,0.00,WeatherDisplay:10.37,2013-12-02 09:54:00,
2013-12-02 04:59:00,33.8,17.1,29.97,NNW,338,1.4,3.5,50,0.00,CLR,,0.00,WeatherDisplay:10.37,2013-12-02 09:59:00,
2013-12-02 05:04:00,33.8,17.1,29.97,NNW,338,1.4,4.0,50,0.00,CLR,,0.00,WeatherDisplay:10.37,2013-12-02 10:04:00,
2013-12-02 05:09:00,33.8,17.1,29.97,NNW,338,2.0,3.5,50,0.00,CLR,,0.00,WeatherDisplay:10.37,2013-12-02 10:09:00,
2013-12-02 05:14:00,33.8,17.1,29.97,NNW,338,2.2,2.9,50,0.00,CLR,,0.00,WeatherDisplay:10.37,2013-12-02 10:14:00,
2013-12-02 05:19:00,33.8,17.6,29.97,NNW,338,0.0,1.2,51,0.00,CLR,,0.00,WeatherDisplay:10.37,2013-12-02 10:19:00,
2013-12-02 05:24:00,33.8,17.6,29.97,NNW,338,0.9,1.2,51,0.00,CLR,,0.00,WeatherDisplay:10.37,2013-12-02 10:24:00,
2013-12-02 05:29:00,33.8,17.6,29.97,North,0,0.0,0.0,51,0.00,CLR,,0.00,WeatherDisplay:10.37,2013-12-02 10:29:00,
2013-12-02 05:34:00,34.0,17.7,29.97,NNE,22,0.9,2.3,51,0.00,CLR,,0.00,WeatherDisplay:10.37,2013-12-02 10:34:00,
2013-12-02 05:39:00,34.0,17.3,29.94,NNW,338,1.2,2.3,50,0.00,CLR,,0.00,WeatherDisplay:10.37,2013-12-02 10:39:00,
2013-12-02 05:44:00,34.0,17.3,29.94,NNE,22,0.9,2.3,50,0.00,CLR,,0.00,WeatherDisplay:10.37,2013-12-02 10:44:00,
2013-12-02 05:49:00,34.0,17.3,29.94,NNE,22,3.1,3.8,50,0.00,CLR,,0.00,WeatherDisplay:10.37,2013-12-02 10:49:00,
2013-12-02 05:54:00,34.0,17.3,29.97,NNE,22,0.0,0.0,50,0.00,CLR,,0.00,WeatherDisplay:10.37,2013-12-02 10:54:00,
2013-12-02 05:59:00,34.0,17.3,29.97,NNE,22,0.0,0.0,50,0.00,CLR,,0.00,WeatherDisplay:10.37,2013-12-02 10:59:00,
2013-12-02 06:04:00,34.0,17.3,29.97,NNW,338,0.0,0.0,50,0.00,CLR,,0.00,WeatherDisplay:10.37,2013-12-02 11:04:00,
2013-12-02 06:09:00,34.0,17.3,29.94,North,0,0.0,1.2,50,0.00,CLR,,0.00,WeatherDisplay:10.37,2013-12-02 11:09:00,
2013-12-02 06:14:00,34.0,17.3,29.94,North,0,0.0,1.2,50,0.00,CLR,,0.00,WeatherDisplay:10.37,2013-12-02 11:14:00,
2013-12-02 06:19:00,34.0,17.3,29.94,NNE,22,0.9,2.3,50,0.00,CLR,,0.00,WeatherDisplay:10.37,2013-12-02 11:19:00,
2013-12-02 06:24:00,34.0,17.3,29.94,North,0,0.0,0.0,50,0.00,CLR,,0.00,WeatherDisplay:10.37,2013-12-02 11:24:00,
2013-12-02 06:29:00,34.0,17.3,29.94,NNE,22,0.0,0.0,50,0.00,CLR,,0.00,WeatherDisplay:10.37,2013-12-02 11:29:00,
2013-12-02 06:34:00,34.0,17.3,29.94,NNE,22,1.2,1.2,50,0.00,CLR,,0.00,WeatherDisplay:10.37,2013-12-02 11:34:00,
2013-12-02 06:39:00,34.0,17.3,29.94,NNE,22,0.9,1.2,50,0.00,CLR,,0.00,WeatherDisplay:10.37,2013-12-02 11:39:00,
2013-12-02 06:44:00,34.0,17.3,29.94,NNE,22,0.0,0.0,50,0.00,CLR,,0.00,WeatherDisplay:10.37,2013-12-02 11:44:00,
2013-12-02 06:49:00,34.0,17.3,29.94,NNE,22,0.0,0.0,50,0.00,CLR,,0.00,WeatherDisplay:10.37,2013-12-02 11:49:00,
2013-12-02 06:54:00,34.0,17.3,29.94,NNE,22,0.0,0.0,50,0.00,CLR,,0.00,WeatherDisplay:10.37,2013-12-02 11:54:00,
2013-12-02 06:59:00,34.0,17.3,29.94,NNE,22,0.0,0.0,50,0.00,CLR,,0.00,WeatherDisplay:10.37,2013-12-02 11:59:00,
2013-12-02 07:04:00,34.2,17.4,29.94,NNE,22,0.0,0.0,50,0.00,CLR,,0.00,WeatherDisplay:10.37,2013-12-02 12:04:00,
2013-12-02 07:09:00,34.2,17.4,29.94,NNE,22,0.0,0.0,50,0.00,CLR,,0.00,WeatherDisplay:10.37,2013-12-02 12:09:00,
2013-12-02 07:14:00,34.0,17.3,29.94,NNW,338,1.6,2.3,50,0.00,CLR,,0.00,WeatherDisplay:10.37,2013-12-02 12:14:00,
2013-12-02 07:19:00,34.0,17.3,29.94,NNW,338,0.0,1.2,50,0.00,CLR,,0.00,WeatherDisplay:10.37,2013-12-02 12:19:00,
2013-12-02 07:24:00,34.0,17.3,29.94,NNW,338,1.2,2.6,50,0.00,CLR,,0.00,WeatherDisplay:10.37,2013-12-02 12:24:00,
2013-12-02 07:29:00,34.0,17.3,29.94,NNE,22,0.0,0.0,50,0.00,CLR,,0.00,WeatherDisplay:10.37,2013-12-02 12:29:00,
2013-12-02 07:34:00,34.0,17.3,29.94,NNW,338,0.9,2.3,50,0.00,CLR,,0.00,WeatherDisplay:10.37,2013-12-02 12:34:00,
2013-12-02 07:39:00,34.3,18.1,29.94,NNW,338,0.0,1.2,51,0.00,CLR,,0.00,WeatherDisplay:10.37,2013-12-02 12:39:00,
2013-12-02 07:44:00,34.3,17.6,29.94,NNE,22,0.0,2.3,50,0.00,CLR,,0.00,WeatherDisplay:10.37,2013-12-02 12:44:00,
2013-12-02 07:49:00,34.2,17.4,29.94,North,0,1.4,2.3,50,0.00,CLR,,0.00,WeatherDisplay:10.37,2013-12-02 12:49:00,
2013-12-02 07:54:00,34.0,17.3,29.94,NNE,22,0.9,2.6,50,0.00,CLR,,0.00,WeatherDisplay:10.37,2013-12-02 12:54:00,
2013-12-02 07:59:00,34.0,17.3,29.94,NNE,22,1.6,2.6,50,0.00,CLR,,0.00,WeatherDisplay:10.37,2013-12-02 12:59:00,
2013-12-02 08:04:00,34.0,17.3,29.94,NE,45,1.6,1.6,50,0.00,CLR,,0.00,WeatherDisplay:10.37,2013-12-02 13:04:00,
2013-12-02 08:09:00,34.0,17.3,29.94,NNE,22,2.2,3.5,50,0.00,CLR,,0.00,WeatherDisplay:10.37,2013-12-02 13:09:00,
2013-12-02 08:14:00,34.0,17.3,29.94,ENE,68,2.2,2.3,50,0.00,CLR,,0.00,WeatherDisplay:10.37,2013-12-02 13:14:00,
2013-12-02 08:19:00,34.0,16.8,29.94,NNE,22,0.0,2.3,49,0.00,CLR,,0.00,WeatherDisplay:10.37,2013-12-02 13:19:00,
2013-12-02 08:24:00,34.0,16.8,29.94,NNE,22,1.4,2.4,49,0.00,CLR,,0.00,WeatherDisplay:10.37,2013-12-02 13:24:00,
2013-12-02 08:29:00,34.0,16.8,29.94,NNE,22,2.2,3.5,49,0.00,CLR,,0.00,WeatherDisplay:10.37,2013-12-02 13:29:00,
2013-12-02 08:34:00,34.0,16.8,29.94,NNE,22,2.4,3.3,49,0.00,CLR,,0.00,WeatherDisplay:10.37,2013-12-02 13:34:00,
2013-12-02 08:39:00,34.0,16.8,29.94,NNE,22,2.0,2.3,49,0.00,CLR,,0.00,WeatherDisplay:10.37,2013-12-02 13:39:00,
2013-12-02 08:44:00,34.0,17.3,29.94,NE,45,2.0,3.5,50,0.00,CLR,,0.00,WeatherDisplay:10.37,2013-12-02 13:44:00,
2013-12-02 08:49:00,34.2,17.4,29.94,NNE,22,0.0,1.2,50,0.00,CLR,,0.00,WeatherDisplay:10.37,2013-12-02 13:49:00,
2013-12-02 08:54:00,34.2,17.0,29.94,NNE,22,0.0,1.2,49,0.00,CLR,,0.00,WeatherDisplay:10.37,2013-12-02 13:54:00,
2013-12-02 08:59:00,34.2,17.0,29.94,NNE,22,0.0,2.3,49,0.00,CLR,,0.00,WeatherDisplay:10.37,2013-12-02 13:59:00,
2013-12-02 09:04:00,34.3,17.1,29.94,NNE,22,0.9,1.2,49,0.00,CLR,,0.00,WeatherDisplay:10.37,2013-12-02 14:04:00,
2013-12-02 09:09:00,34.3,17.1,29.94,NNE,22,0.9,1.6,49,0.00,CLR,,0.00,WeatherDisplay:10.37,2013-12-02 14:09:00,
2013-12-02 09:14:00,34.5,17.3,29.94,NNE,22,1.2,2.6,49,0.00,CLR,,0.00,WeatherDisplay:10.37,2013-12-02 14:14:00,
2013-12-02 09:19:00,34.5,17.3,29.94,NNE,22,2.4,2.6,49,0.00,CLR,,0.00,WeatherDisplay:10.37,2013-12-02 14:19:00,
2013-12-02 09:24:00,34.5,17.3,29.94,NNE,22,0.0,1.2,49,0.00,CLR,,0.00,WeatherDisplay:10.37,2013-12-02 14:24:00,
2013-12-02 09:29:00,34.7,17.0,29.94,NNE,22,1.4,2.3,48,0.00,CLR,,0.00,WeatherDisplay:10.37,2013-12-02 14:29:00,
2013-12-02 09:34:00,34.9,17.2,29.94,NE,45,2.2,3.5,48,0.00,CLR,,0.00,WeatherDisplay:10.37,2013-12-02 14:34:00,
2013-12-02 09:39:00,34.9,16.7,29.91,NNE,22,1.6,2.4,47,0.00,CLR,,0.00,WeatherDisplay:10.37,2013-12-02 14:39:00,
2013-12-02 09:44:00,34.9,16.7,29.91,NNE,22,2.0,4.6,47,0.00,CLR,,0.00,WeatherDisplay:10.37,2013-12-02 14:44:00,
2013-12-02 09:49:00,35.1,16.8,29.91,NNE,22,4.7,5.8,47,0.00,CLR,,0.00,WeatherDisplay:10.37,2013-12-02 14:49:00,
2013-12-02 09:54:00,35.1,16.3,29.91,East,90,3.8,5.8,46,0.00,CLR,,0.00,WeatherDisplay:10.37,2013-12-02 14:54:00,
2013-12-02 09:59:00,35.2,16.5,29.91,NE,45,2.2,4.0,46,0.00,CLR,,0.00,WeatherDisplay:10.37,2013-12-02 14:59:00,
2013-12-02 10:04:00,35.2,16.0,29.91,NE,45,5.4,5.8,45,0.00,CLR,,0.00,WeatherDisplay:10.37,2013-12-02 15:04:00,
2013-12-02 10:09:00,35.4,16.2,29.94,NE,45,3.3,5.8,45,0.00,CLR,,0.00,WeatherDisplay:10.37,2013-12-02 15:09:00,
2013-12-02 10:14:00,35.6,15.8,29.94,NNW,338,2.2,4.6,44,0.00,CLR,,0.00,WeatherDisplay:10.37,2013-12-02 15:14:00,
2013-12-02 10:19:00,35.6,15.8,29.94,NNE,22,3.3,4.6,44,0.00,CLR,,0.00,WeatherDisplay:10.37,2013-12-02 15:19:00,
2013-12-02 10:24:00,35.6,15.3,29.94,NE,45,3.3,5.8,43,0.00,CLR,,0.00,WeatherDisplay:10.37,2013-12-02 15:24:00,
2013-12-02 10:29:00,35.8,14.9,29.94,NE,45,5.6,5.8,42,0.00,CLR,,0.00,WeatherDisplay:10.37,2013-12-02 15:29:00,
2013-12-02 10:34:00,35.8,14.9,29.94,ENE,68,3.3,4.6,42,0.00,CLR,,0.00,WeatherDisplay:10.37,2013-12-02 15:34:00,
2013-12-02 10:39:00,36.1,15.2,29.94,NNE,22,4.3,4.7,42,0.00,CLR,,0.00,WeatherDisplay:10.37,2013-12-02 15:39:00,
2013-12-02 10:44:00,36.3,14.8,29.94,NE,45,4.3,5.8,41,0.00,CLR,,0.00,WeatherDisplay:10.37,2013-12-02 15:44:00,
2013-12-02 10:49:00,36.3,14.8,29.94,NNE,22,3.8,5.8,41,0.00,CLR,,0.00,WeatherDisplay:10.37,2013-12-02 15:49:00,
2013-12-02 10:54:00,36.5,15.0,29.91,NNE,22,3.8,5.8,41,0.00,CLR,,0.00,WeatherDisplay:10.37,2013-12-02 15:54:00,
2013-12-02 10:59:00,36.7,14.6,29.91,North,0,2.6,4.6,40,0.00,CLR,,0.00,WeatherDisplay:10.37,2013-12-02 15:59:00,
2013-12-02 11:04:00,36.7,14.6,29.91,NE,45,3.8,5.9,40,0.00,CLR,,0.00,WeatherDisplay:10.37,2013-12-02 16:04:00,
2013-12-02 11:09:00,36.9,14.8,29.94,NNE,22,3.3,4.6,40,0.00,CLR,,0.00,WeatherDisplay:10.37,2013-12-02 16:09:00,
2013-12-02 11:14:00,36.9,14.2,29.94,NNE,22,5.4,5.8,39,0.00,CLR,,0.00,WeatherDisplay:10.37,2013-12-02 16:14:00,
2013-12-02 11:19:00,36.9,14.2,29.94,NNE,22,5.4,5.9,39,0.00,CLR,,0.00,WeatherDisplay:10.37,2013-12-02 16:19:00,
2013-12-02 11:24:00,36.9,14.2,29.94,NE,45,3.3,5.8,39,0.00,CLR,,0.00,WeatherDisplay:10.37,2013-12-02 16:24:00,
2013-12-02 11:29:00,37.0,14.3,29.94,NNE,22,4.0,7.4,39,0.00,CLR,,0.00,WeatherDisplay:10.37,2013-12-02 16:29:00,
2013-12-02 11:34:00,37.0,13.7,29.94,ENE,68,3.8,6.2,38,0.00,CLR,,0.00,WeatherDisplay:10.37,2013-12-02 16:34:00,
2013-12-02 11:39:00,37.0,13.7,29.94,ENE,68,6.4,8.1,38,0.00,CLR,,0.00,WeatherDisplay:10.37,2013-12-02 16:39:00,
2013-12-02 11:44:00,37.2,13.3,29.94,ENE,68,4.9,6.9,37,0.00,CLR,,0.00,WeatherDisplay:10.37,2013-12-02 16:44:00,
2013-12-02 11:49:00,37.2,13.9,29.94,NE,45,4.9,5.9,38,0.00,CLR,,0.00,WeatherDisplay:10.37,2013-12-02 16:49:00,
2013-12-02 11:54:00,37.4,13.5,29.94,NNE,22,3.8,5.8,37,0.00,CLR,,0.00,WeatherDisplay:10.37,2013-12-02 16:54:00,
2013-12-02 11:59:00,37.6,13.6,29.94,NNE,22,4.5,5.8,37,0.00,CLR,,0.00,WeatherDisplay:10.37,2013-12-02 16:59:00,
2013-12-02 12:04:00,37.8,13.8,29.94,NNE,22,5.6,8.1,37,0.00,CLR,,0.00,WeatherDisplay:10.37,2013-12-02 17:04:00,
2013-12-02 12:09:00,37.8,13.2,29.94,North,0,2.9,5.8,36,0.00,CLR,,0.00,WeatherDisplay:10.37,2013-12-02 17:09:00,
2013-12-02 12:14:00,37.9,13.3,29.94,ENE,68,4.5,5.8,36,0.00,CLR,,0.00,WeatherDisplay:10.37,2013-12-02 17:14:00,
2013-12-02 12:19:00,37.9,12.7,29.94,NE,45,6.2,8.1,35,0.00,CLR,,0.00,WeatherDisplay:10.37,2013-12-02 17:19:00,
2013-12-02 12:24:00,37.9,12.7,29.91,NNE,22,6.4,6.4,35,0.00,CLR,,0.00,WeatherDisplay:10.37,2013-12-02 17:24:00,
2013-12-02 12:29:00,37.9,12.0,29.91,NE,45,4.0,8.7,34,0.00,CLR,,0.00,WeatherDisplay:10.37,2013-12-02 17:29:00,
2013-12-02 12:34:00,37.9,11.3,29.91,NE,45,6.7,9.2,33,0.00,CLR,,0.00,WeatherDisplay:10.37,2013-12-02 17:34:00,
2013-12-02 12:39:00,37.8,11.2,29.91,ENE,68,4.0,5.8,33,0.00,CLR,,0.00,WeatherDisplay:10.37,2013-12-02 17:39:00,
2013-12-02 12:45:00,37.9,10.7,29.91,NNE,22,4.7,5.4,32,0.00,CLR,,0.00,WeatherDisplay:10.37,2013-12-02 17:45:00,
2013-12-02 12:50:00,37.9,11.3,29.91,NE,45,5.4,5.8,33,0.00,CLR,,0.00,WeatherDisplay:10.37,2013-12-02 17:50:00,
2013-12-02 12:55:00,37.9,10.7,29.88,North,0,6.7,6.7,32,0.00,CLR,,0.00,WeatherDisplay:10.37,2013-12-02 17:55:00,
2013-12-02 13:00:00,37.9,10.7,29.88,NNE,22,5.4,5.8,32,0.00,CLR,,0.00,WeatherDisplay:10.37,2013-12-02 18:00:00,
2013-12-02 13:05:00,37.9,9.9,29.88,NE,45,6.0,6.9,31,0.00,CLR,,0.00,WeatherDisplay:10.37,2013-12-02 18:05:00,
2013-12-02 13:10:00,37.9,9.9,29.88,NE,45,6.0,7.6,31,0.00,CLR,,0.00,WeatherDisplay:10.37,2013-12-02 18:10:00,
2013-12-02 13:15:00,37.9,9.9,29.88,NE,45,4.5,4.6,31,0.00,CLR,,0.00,WeatherDisplay:10.37,2013-12-02 18:15:00,
2013-12-02 13:20:00,38.1,10.1,29.88,NE,45,6.9,8.1,31,0.00,CLR,,0.00,WeatherDisplay:10.37,2013-12-02 18:20:00,
2013-12-02 13:25:00,38.1,10.1,29.88,NNE,22,4.3,5.8,31,0.00,CLR,,0.00,WeatherDisplay:10.37,2013-12-02 18:25:00,
2013-12-02 13:30:00,38.3,10.3,29.88,ENE,68,4.0,6.9,31,0.00,CLR,,0.00,WeatherDisplay:10.37,2013-12-02 18:30:00,
2013-12-02 13:35:00,38.5,10.4,29.88,NE,45,2.4,4.0,31,0.00,CLR,,0.00,WeatherDisplay:10.37,2013-12-02 18:35:00,
2013-12-02 13:40:00,38.7,10.6,29.88,ENE,68,4.9,5.8,31,0.00,CLR,,0.00,WeatherDisplay:10.37,2013-12-02 18:40:00,
2013-12-02 13:45:00,38.7,10.6,29.88,NNE,22,4.0,5.8,31,0.00,CLR,,0.00,WeatherDisplay:10.37,2013-12-02 18:45:00,
2013-12-02 13:50:00,38.7,10.6,29.88,NE,45,3.6,5.8,31,0.00,CLR,,0.00,WeatherDisplay:10.37,2013-12-02 18:50:00,
2013-12-02 13:55:00,38.7,10.6,29.88,NNW,338,2.6,3.5,31,0.00,CLR,,0.00,WeatherDisplay:10.37,2013-12-02 18:55:00,
2013-12-02 14:00:00,38.7,10.6,29.88,NNE,14,1.0,6.0,31,0.00,CLR,,0.00,WeatherDisplay:10.37,2013-12-02 19:00:00,
2013-12-02 14:05:00,38.7,9.8,29.88,NNE,20,2.0,6.0,30,0.00,CLR,,0.00,WeatherDisplay:10.37,2013-12-02 19:05:00,
2013-12-02 14:10:00,38.8,10.7,29.88,ENE,68,2.0,2.3,31,0.00,CLR,,0.00,WeatherDisplay:10.37,2013-12-02 19:10:00,
2013-12-02 14:15:00,39.2,10.3,29.88,ENE,68,2.6,4.6,30,0.00,CLR,,0.00,WeatherDisplay:10.37,2013-12-02 19:15:00,
2013-12-02 14:20:00,39.2,10.3,29.88,NE,51,3.0,8.0,30,0.00,CLR,,0.00,WeatherDisplay:10.37,2013-12-02 19:20:00,
2013-12-02 14:25:00,39.4,10.5,29.88,East,85,1.0,4.0,30,0.00,CLR,,0.00,WeatherDisplay:10.37,2013-12-02 19:25:00,
2013-12-02 14:30:00,39.4,10.5,29.88,East,82,5.0,8.0,30,0.00,CLR,,0.00,WeatherDisplay:10.37,2013-12-02 19:30:00,
2013-12-02 14:35:00,39.4,10.5,29.88,NNE,18,3.0,6.0,30,0.00,CLR,,0.00,WeatherDisplay:10.37,2013-12-02 19:35:00,
2013-12-02 14:40:00,39.4,10.5,29.88,NNE,15,2.0,6.0,30,0.00,CLR,,0.00,WeatherDisplay:10.37,2013-12-02 19:40:00,
2013-12-02 14:45:00,39.2,9.6,29.88,NNE,12,7.0,8.0,29,0.00,CLR,,0.00,WeatherDisplay:10.37,2013-12-02 19:45:00,
2013-12-02 14:50:00,39.0,10.2,29.88,ENE,68,3.6,4.6,30,0.00,CLR,,0.00,WeatherDisplay:10.37,2013-12-02 19:50:00,
2013-12-02 14:55:00,38.8,10.0,29.85,NE,45,4.9,5.8,30,0.00,CLR,,0.00,WeatherDisplay:10.37,2013-12-02 19:55:00,
2013-12-02 15:00:00,38.7,9.8,29.85,NNE,32,5.0,6.0,30,0.00,CLR,,0.00,WeatherDisplay:10.37,2013-12-02 20:00:00,
2013-12-02 15:05:00,38.7,9.1,29.85,NE,45,4.9,5.8,29,0.00,CLR,,0.00,WeatherDisplay:10.37,2013-12-02 20:05:00,
2013-12-02 15:10:00,38.7,9.1,29.91,NNE,22,3.3,3.6,29,0.00,CLR,,0.00,WeatherDisplay:10.37,2013-12-02 20:10:00,
2013-12-02 15:15:00,38.7,9.8,29.91,NE,39,3.0,4.0,30,0.00,CLR,,0.00,WeatherDisplay:10.37,2013-12-02 20:15:00,
2013-12-02 15:20:00,38.7,9.8,29.91,NNE,27,3.0,5.0,30,0.00,CLR,,0.00,WeatherDisplay:10.37,2013-12-02 20:20:00,
2013-12-02 15:25:00,38.7,9.8,29.91,North,0,2.4,2.4,30,0.00,CLR,,0.00,WeatherDisplay:10.37,2013-12-02 20:25:00,
2013-12-02 15:30:00,38.5,9.7,29.91,NNE,13,1.0,4.0,30,0.00,CLR,,0.00,WeatherDisplay:10.37,2013-12-02 20:30:00,
2013-12-02 15:35:00,38.5,9.7,29.91,NE,45,2.0,3.5,30,0.00,CLR,,0.00,WeatherDisplay:10.37,2013-12-02 20:35:00,
2013-12-02 15:40:00,38.7,9.8,29.88,NNE,22,1.2,2.4,30,0.00,CLR,,0.00,WeatherDisplay:10.37,2013-12-02 20:40:00,
2013-12-02 15:45:00,38.7,9.8,29.88,NE,45,3.8,4.6,30,0.00,CLR,,0.00,WeatherDisplay:10.37,2013-12-02 20:45:00,
2013-12-02 15:50:00,38.7,9.1,29.88,NE,45,2.2,3.5,29,0.00,CLR,,0.00,WeatherDisplay:10.37,2013-12-02 20:50:00,
2013-12-02 15:55:00,38.7,9.1,29.88,ENE,68,2.9,3.5,29,0.00,CLR,,0.00,WeatherDisplay:10.37,2013-12-02 20:55:00,
2013-12-02 16:00:00,38.7,9.1,29.88,NNE,22,4.0,5.8,29,0.00,CLR,,0.00,WeatherDisplay:10.37,2013-12-02 21:00:00,
2013-12-02 16:05:00,38.7,9.1,29.88,NE,45,2.9,3.5,29,0.00,CLR,,0.00,WeatherDisplay:10.37,2013-12-02 21:05:00,
2013-12-02 16:10:00,38.5,8.9,29.88,NNE,22,2.4,4.6,29,0.00,CLR,,0.00,WeatherDisplay:10.37,2013-12-02 21:10:00,
2013-12-02 16:15:00,38.5,8.9,29.88,NNE,22,3.6,5.8,29,0.00,CLR,,0.00,WeatherDisplay:10.37,2013-12-02 21:15:00,
2013-12-02 16:20:00,38.5,8.9,29.88,ENE,68,2.4,3.5,29,0.00,CLR,,0.00,WeatherDisplay:10.37,2013-12-02 21:20:00,
2013-12-02 16:25:00,38.3,8.8,29.91,NE,45,3.1,3.6,29,0.00,CLR,,0.00,WeatherDisplay:10.37,2013-12-02 21:25:00,
2013-12-02 16:30:00,38.3,8.8,29.91,ENE,68,2.2,3.5,29,0.00,CLR,,0.00,WeatherDisplay:10.37,2013-12-02 21:30:00,
2013-12-02 16:35:00,38.3,8.8,29.91,NE,45,2.2,3.5,29,0.00,CLR,,0.00,WeatherDisplay:10.37,2013-12-02 21:35:00,
2013-12-02 16:40:00,38.1,8.6,29.88,ENE,68,4.3,5.8,29,0.00,CLR,,0.00,WeatherDisplay:10.37,2013-12-02 21:40:00,
2013-12-02 16:45:00,38.1,8.6,29.88,NE,45,3.1,3.5,29,0.00,CLR,,0.00,WeatherDisplay:10.37,2013-12-02 21:45:00,
2013-12-02 16:50:00,37.9,8.5,29.88,NNE,22,3.6,4.6,29,0.00,CLR,,0.00,WeatherDisplay:10.37,2013-12-02 21:50:00,
2013-12-02 16:55:00,37.8,8.3,29.88,NE,45,2.0,2.6,29,0.00,CLR,,0.00,WeatherDisplay:10.37,2013-12-02 21:55:00,
2013-12-02 17:00:00,37.8,8.3,29.88,NNE,22,1.6,2.3,29,0.00,CLR,,0.00,WeatherDisplay:10.37,2013-12-02 22:00:00,
2013-12-02 17:05:00,37.6,8.1,29.85,NE,45,2.2,3.5,29,0.00,CLR,,0.00,WeatherDisplay:10.37,2013-12-02 22:05:00,
2013-12-02 17:10:00,37.6,8.1,29.85,NE,45,0.0,0.0,29,0.00,CLR,,0.00,WeatherDisplay:10.37,2013-12-02 22:10:00,
2013-12-02 17:15:00,37.4,8.0,29.85,NE,45,0.0,0.0,29,0.00,CLR,,0.00,WeatherDisplay:10.37,2013-12-02 22:15:00,
2013-12-02 17:20:00,37.4,8.0,29.88,ENE,68,0.0,0.0,29,0.00,CLR,,0.00,WeatherDisplay:10.37,2013-12-02 22:20:00,
2013-12-02 17:25:00,37.2,8.6,29.88,NE,45,0.0,0.0,30,0.00,CLR,,0.00,WeatherDisplay:10.37,2013-12-02 22:25:00,
2013-12-02 17:30:00,37.2,8.6,29.88,NE,45,0.0,0.0,30,0.00,CLR,,0.00,WeatherDisplay:10.37,2013-12-02 22:30:00,
2013-12-02 17:35:00,37.0,8.4,29.85,NE,45,0.0,0.0,30,0.00,CLR,,0.00,WeatherDisplay:10.37,2013-12-02 22:35:00,
2013-12-02 17:40:00,36.9,8.3,29.85,NE,45,0.0,0.0,30,0.00,CLR,,0.00,WeatherDisplay:10.37,2013-12-02 22:40:00,
2013-12-02 17:45:00,36.7,8.1,29.85,NE,45,0.0,0.0,30,0.00,CLR,,0.00,WeatherDisplay:10.37,2013-12-02 22:45:00,
2013-12-02 17:50:00,36.5,8.0,29.88,NE,45,0.0,0.0,30,0.00,CLR,,0.00,WeatherDisplay:10.37,2013-12-02 22:50:00,
2013-12-02 17:55:00,36.3,7.8,29.88,NE,45,0.0,0.0,30,0.00,CLR,,0.00,WeatherDisplay:10.37,2013-12-02 22:55:00,
2013-12-02 18:00:00,36.1,7.6,29.88,NE,45,0.0,0.0,30,0.00,CLR,,0.00,WeatherDisplay:10.37,2013-12-02 23:00:00,
2013-12-02 18:05:00,36.1,7.6,29.88,NE,45,0.0,0.0,30,0.00,CLR,,0.00,WeatherDisplay:10.37,2013-12-02 23:05:00,
2013-12-02 18:10:00,35.8,7.3,29.88,NE,45,0.0,0.0,30,0.00,CLR,,0.00,WeatherDisplay:10.37,2013-12-02 23:10:00,
2013-12-02 18:15:00,35.8,7.3,29.88,ENE,68,0.0,0.0,30,0.00,CLR,,0.00,WeatherDisplay:10.37,2013-12-02 23:15:00,
2013-12-02 18:20:00,35.6,7.2,29.88,ENE,68,0.0,0.0,30,0.00,CLR,,0.00,WeatherDisplay:10.37,2013-12-02 23:20:00,
2013-12-02 18:25:00,35.4,7.0,29.88,ENE,68,0.0,0.0,30,0.00,CLR,,0.00,WeatherDisplay:10.37,2013-12-02 23:25:00,
2013-12-02 18:30:00,35.4,7.0,29.88,ENE,68,0.0,0.0,30,0.00,CLR,,0.00,WeatherDisplay:10.37,2013-12-02 23:30:00,
2013-12-02 18:35:00,35.2,6.8,29.88,ENE,68,0.0,0.0,30,0.00,CLR,,0.00,WeatherDisplay:10.37,2013-12-02 23:35:00,
2013-12-02 18:40:00,35.2,7.6,29.88,ENE,68,0.0,0.0,31,0.00,CLR,,0.00,WeatherDisplay:10.37,2013-12-02 23:40:00,
2013-12-02 18:45:00,35.1,7.4,29.88,ENE,68,0.0,0.0,31,0.00,CLR,,0.00,WeatherDisplay:10.37,2013-12-02 23:45:00,
2013-12-02 18:50:00,35.1,7.4,29.88,NE,45,2.0,3.6,31,0.00,CLR,,0.00,WeatherDisplay:10.37,2013-12-02 23:50:00,
2013-12-02 18:55:00,34.9,7.3,29.88,ENE,68,3.8,4.6,31,0.00,CLR,,0.00,WeatherDisplay:10.37,2013-12-02 23:55:00,
2013-12-02 19:00:00,34.9,7.3,29.88,NE,45,3.3,4.6,31,0.00,CLR,,0.00,WeatherDisplay:10.37,2013-12-03 00:00:00,
2013-12-02 19:05:00,34.9,7.3,29.88,NE,45,3.3,4.6,31,0.00,CLR,,0.00,WeatherDisplay:10.37,2013-12-03 00:05:00,
2013-12-02 19:10:00,34.9,7.3,29.88,NE,45,2.4,3.1,31,0.00,CLR,,0.00,WeatherDisplay:10.37,2013-12-03 00:10:00,
2013-12-02 19:15:00,34.9,7.3,29.88,NNE,22,4.5,5.8,31,0.00,CLR,,0.00,WeatherDisplay:10.37,2013-12-03 00:15:00,
2013-12-02 19:20:00,34.9,7.3,29.85,ENE,68,4.5,5.8,31,0.00,CLR,,0.00,WeatherDisplay:10.37,2013-12-03 00:20:00,
2013-12-02 19:25:00,34.9,6.5,29.85,NE,45,4.9,6.2,30,0.00,CLR,,0.00,WeatherDisplay:10.37,2013-12-03 00:25:00,
2013-12-02 19:30:00,34.9,6.5,29.85,ENE,68,4.0,6.4,30,0.00,CLR,,0.00,WeatherDisplay:10.37,2013-12-03 00:30:00,
2013-12-02 19:35:00,34.9,6.5,29.85,East,90,4.0,5.8,30,0.00,CLR,,0.00,WeatherDisplay:10.37,2013-12-03 00:35:00,
2013-12-02 19:40:00,34.9,6.5,29.85,ENE,68,3.3,4.6,30,0.00,CLR,,0.00,WeatherDisplay:10.37,2013-12-03 00:40:00,
2013-12-02 19:45:00,34.9,6.5,29.85,ENE,68,2.9,4.6,30,0.00,CLR,,0.00,WeatherDisplay:10.37,2013-12-03 00:45:00,
2013-12-02 19:50:00,34.9,6.5,29.88,ENE,68,3.3,5.8,30,0.00,CLR,,0.00,WeatherDisplay:10.37,2013-12-03 00:50:00,
2013-12-02 19:55:00,34.9,7.3,29.88,ESE,112,3.8,5.8,31,0.00,CLR,,0.00,WeatherDisplay:10.37,2013-12-03 00:55:00,
2013-12-02 20:00:00,34.9,7.3,29.88,ENE,68,3.6,5.8,31,0.00,CLR,,0.00,WeatherDisplay:10.37,2013-12-03 01:00:00,
2013-12-02 20:05:00,34.9,7.3,29.88,ESE,112,4.7,6.9,31,0.00,CLR,,0.00,WeatherDisplay:10.37,2013-12-03 01:05:00,
2013-12-02 20:10:00,34.7,7.1,29.88,ESE,112,3.8,4.6,31,0.00,CLR,,0.00,WeatherDisplay:10.37,2013-12-03 01:10:00,
2013-12-02 20:15:00,34.7,7.1,29.88,East,90,3.8,4.3,31,0.00,CLR,,0.00,WeatherDisplay:10.37,2013-12-03 01:15:00,
2013-12-02 20:20:00,34.7,7.1,29.88,East,90,3.3,4.3,31,0.00,CLR,,0.00,WeatherDisplay:10.37,2013-12-03 01:20:00,
2013-12-02 20:25:00,34.7,7.1,29.88,ESE,112,3.3,3.5,31,0.00,CLR,,0.00,WeatherDisplay:10.37,2013-12-03 01:25:00,
2013-12-02 20:30:00,34.7,7.1,29.88,East,90,2.2,2.3,31,0.00,CLR,,0.00,WeatherDisplay:10.37,2013-12-03 01:30:00,
2013-12-02 20:35:00,34.5,6.9,29.88,East,90,2.0,2.4,31,0.00,CLR,,0.00,WeatherDisplay:10.37,2013-12-03 01:35:00,
2013-12-02 20:40:00,34.5,6.9,29.88,East,90,2.0,2.3,31,0.00,CLR,,0.00,WeatherDisplay:10.37,2013-12-03 01:40:00,
2013-12-02 20:45:00,34.5,6.9,29.88,ENE,68,1.6,2.3,31,0.00,CLR,,0.00,WeatherDisplay:10.37,2013-12-03 01:45:00,
2013-12-02 20:50:00,34.3,6.8,29.91,ENE,68,2.4,3.5,31,0.00,CLR,,0.00,WeatherDisplay:10.37,2013-12-03 01:50:00,
2013-12-02 20:55:00,34.2,6.6,29.91,ENE,68,2.9,3.5,31,0.00,CLR,,0.00,WeatherDisplay:10.37,2013-12-03 01:55:00,
2013-12-02 21:00:00,34.0,6.5,29.91,ENE,68,2.2,2.3,31,0.00,CLR,,0.00,WeatherDisplay:10.37,2013-12-03 02:00:00,
2013-12-02 21:05:00,33.8,6.3,29.91,ENE,68,1.2,1.6,31,0.00,CLR,,0.00,WeatherDisplay:10.37,2013-12-03 02:05:00,
2013-12-02 21:10:00,33.8,6.3,29.91,ENE,68,1.6,2.3,31,0.00,CLR,,0.00,WeatherDisplay:10.37,2013-12-03 02:10:00,
2013-12-02 21:15:00,33.8,6.3,29.91,ENE,68,1.2,1.2,31,0.00,CLR,,0.00,WeatherDisplay:10.37,2013-12-03 02:15:00,
2013-12-02 21:20:00,33.6,6.1,29.91,ENE,68,1.4,2.3,31,0.00,CLR,,0.00,WeatherDisplay:10.37,2013-12-03 02:20:00,
2013-12-02 21:25:00,33.4,6.0,29.91,ENE,68,1.6,2.3,31,0.00,CLR,,0.00,WeatherDisplay:10.37,2013-12-03 02:25:00,
2013-12-02 21:30:00,33.4,6.7,29.91,ENE,68,1.4,2.3,32,0.00,CLR,,0.00,WeatherDisplay:10.37,2013-12-03 02:30:00,
2013-12-02 21:35:00,33.3,6.5,29.91,ENE,68,0.0,0.0,32,0.00,CLR,,0.00,WeatherDisplay:10.37,2013-12-03 02:35:00,
2013-12-02 21:40:00,33.3,6.5,29.91,ENE,68,0.0,0.0,32,0.00,CLR,,0.00,WeatherDisplay:10.37,2013-12-03 02:40:00,
2013-12-02 21:45:00,33.3,6.5,29.91,NE,45,2.0,2.4,32,0.00,CLR,,0.00,WeatherDisplay:10.37,2013-12-03 02:45:00,
2013-12-02 21:50:00,33.3,6.5,29.91,ENE,68,1.2,2.4,32,0.00,CLR,,0.00,WeatherDisplay:10.37,2013-12-03 02:50:00,
2013-12-02 21:55:00,33.1,6.4,29.91,ENE,68,2.2,2.3,32,0.00,CLR,,0.00,WeatherDisplay:10.37,2013-12-03 02:55:00,
2013-12-02 22:00:00,33.1,6.4,29.91,NE,45,2.4,2.4,32,0.00,CLR,,0.00,WeatherDisplay:10.37,2013-12-03 03:00:00,
2013-12-02 22:05:00,33.1,6.4,29.91,NE,45,2.4,3.5,32,0.00,CLR,,0.00,WeatherDisplay:10.37,2013-12-03 03:05:00,
2013-12-02 22:10:00,33.1,6.4,29.91,NE,45,2.2,2.3,32,0.00,CLR,,0.00,WeatherDisplay:10.37,2013-12-03 03:10:00,
2013-12-02 22:15:00,33.1,6.4,29.91,NE,45,1.6,2.3,32,0.00,CLR,,0.00,WeatherDisplay:10.37,2013-12-03 03:15:00,
2013-12-02 22:20:00,32.9,6.2,29.91,ENE,68,2.6,2.9,32,0.00,CLR,,0.00,WeatherDisplay:10.37,2013-12-03 03:20:00,
2013-12-02 22:25:00,32.9,6.2,29.91,ENE,68,2.6,3.5,32,0.00,CLR,,0.00,WeatherDisplay:10.37,2013-12-03 03:25:00,
2013-12-02 22:30:00,32.7,6.1,29.91,NE,45,2.2,2.9,32,0.00,CLR,,0.00,WeatherDisplay:10.37,2013-12-03 03:30:00,
2013-12-02 22:35:00,32.5,5.9,29.91,NE,45,1.4,1.4,32,0.00,CLR,,0.00,WeatherDisplay:10.37,2013-12-03 03:35:00,
2013-12-02 22:40:00,32.4,5.7,29.91,ENE,68,1.4,2.3,32,0.00,CLR,,0.00,WeatherDisplay:10.37,2013-12-03 03:40:00,
2013-12-02 22:45:00,32.4,5.7,29.91,NE,45,1.4,2.3,32,0.00,CLR,,0.00,WeatherDisplay:10.37,2013-12-03 03:45:00,
2013-12-02 22:50:00,32.0,5.4,29.91,NE,45,0.9,1.6,32,0.00,CLR,,0.00,WeatherDisplay:10.37,2013-12-03 03:50:00,
2013-12-02 22:55:00,31.8,5.3,29.91,NE,45,0.0,1.2,32,0.00,CLR,,0.00,WeatherDisplay:10.37,2013-12-03 03:55:00,
2013-12-02 23:00:00,31.8,5.9,29.91,ENE,68,0.0,2.2,33,0.00,CLR,,0.00,WeatherDisplay:10.37,2013-12-03 04:00:00,
2013-12-02 23:05:00,31.8,5.9,29.91,NE,45,0.0,2.3,33,0.00,CLR,,0.00,WeatherDisplay:10.37,2013-12-03 04:05:00,
2013-12-02 23:10:00,31.5,5.6,29.91,ENE,68,0.0,0.0,33,0.00,CLR,,0.00,WeatherDisplay:10.37,2013-12-03 04:10:00,
2013-12-02 23:15:00,31.5,5.6,29.91,ENE,68,0.0,0.0,33,0.00,CLR,,0.00,WeatherDisplay:10.37,2013-12-03 04:15:00,
2013-12-02 23:20:00,31.6,5.8,29.88,ENE,68,0.0,0.0,33,0.00,CLR,,0.00,WeatherDisplay:10.37,2013-12-03 04:20:00,
2013-12-02 23:25:00,31.6,5.8,29.88,ENE,68,0.0,0.0,33,0.00,CLR,,0.00,WeatherDisplay:10.37,2013-12-03 04:25:00,
2013-12-02 23:30:00,31.3,5.5,29.88,ENE,68,0.0,0.0,33,0.00,CLR,,0.00,WeatherDisplay:10.37,2013-12-03 04:30:00,
2013-12-02 23:35:00,31.3,5.5,29.88,ENE,68,3.1,3.5,33,0.00,CLR,,0.00,WeatherDisplay:10.37,2013-12-03 04:35:00,
2013-12-02 23:40:00,31.5,5.6,29.88,ENE,68,3.1,3.5,33,0.00,CLR,,0.00,WeatherDisplay:10.37,2013-12-03 04:40:00,
2013-12-02 23:45:00,31.5,6.3,29.88,ENE,68,2.6,3.5,34,0.00,CLR,,0.00,WeatherDisplay:10.37,2013-12-03 04:45:00,
2013-12-02 23:50:00,31.5,6.3,29.88,ENE,68,2.6,3.5,34,0.00,CLR,,0.00,WeatherDisplay:10.37,2013-12-03 04:50:00,
2013-12-02 23:55:00,31.5,6.3,29.88,ENE,68,3.1,3.5,34,0.00,CLR,,0.00,WeatherDisplay:10.37,2013-12-03 04:55:00,